Time;durP1;ratioP1;P1;durP2;ratioP2;P2;SDS_P1;SDS_P2;PMS_P1;PMS_P2;Temp;Humidity;BMP_temperature;BMP_pressure;BME280_temperature;BME280_humidity;BME280_pressure;Samples;Min_cycle;Max_cycle;Signal;HPM_P1;HPM_P2
2023/02/18 00:02:05;;;;;;;26.50;18.17;;;19.90;99.90;;;;;;5020425;28;20165;-56
2023/02/18 00:04:31;;;;;;;29.60;18.88;;;19.90;99.90;;;;;;5011699;28;20275;-55
2023/02/18 00:06:57;;;;;;;29.38;19.52;;;19.90;99.90;;;;;;5018960;28;20022;-56
2023/02/18 00:09:23;;;;;;;30.58;18.92;;;19.90;99.90;;;;;;5019485;28;20037;-56
2023/02/18 00:11:48;;;;;;;28.42;19.05;;;19.90;99.90;;;;;;5011773;28;20026;-56
2023/02/18 00:14:16;;;;;;;27.83;18.92;;;19.90;99.90;;;;;;5006706;28;20467;-56
2023/02/18 00:16:43;;;;;;;24.98;17.33;;;19.90;99.90;;;;;;5031582;28;20017;-56
2023/02/18 00:19:13;;;;;;;26.57;16.93;;;19.90;99.90;;;;;;5019003;28;20525;-55
2023/02/18 00:21:39;;;;;;;29.58;18.60;;;19.80;99.90;;;;;;5016909;28;20083;-56
2023/02/18 00:24:06;;;;;;;29.23;18.25;;;19.80;99.90;;;;;;5031512;28;20108;-56
2023/02/18 00:26:32;;;;;;;29.35;17.15;;;19.80;99.90;;;;;;5028984;28;20151;-56
2023/02/18 00:28:58;;;;;;;27.27;18.42;;;19.80;99.90;;;;;;5011863;28;20030;-56
2023/02/18 00:31:28;;;;;;;26.15;16.17;;;19.80;99.90;;;;;;5011722;28;20098;-56
2023/02/18 00:33:56;;;;;;;24.85;16.85;;;19.80;99.90;;;;;;5011619;28;20444;-56
2023/02/18 00:36:23;;;;;;;25.27;16.98;;;19.80;99.90;;;;;;5026672;28;20022;-55
2023/02/18 00:38:52;;;;;;;27.67;17.23;;;19.80;99.90;;;;;;5031471;28;20072;-56
2023/02/18 00:41:20;;;;;;;25.30;16.13;;;19.80;99.90;;;;;;5018651;28;20104;-56
2023/02/18 00:43:46;;;;;;;25.10;16.55;;;19.80;99.90;;;;;;5019091;28;20030;-55
2023/02/18 00:46:12;;;;;;;23.67;16.63;;;19.80;99.90;;;;;;5034357;28;20026;-56
2023/02/18 00:48:38;;;;;;;25.00;15.98;;;19.80;99.90;;;;;;5035220;28;20044;-57
2023/02/18 00:51:05;;;;;;;22.25;16.33;;;19.80;99.90;;;;;;5030527;28;20429;-54
2023/02/18 00:53:31;;;;;;;26.38;16.45;;;19.80;99.90;;;;;;5026388;28;20083;-54
2023/02/18 00:55:57;;;;;;;24.52;16.30;;;19.80;99.90;;;;;;5034843;28;20387;-54
2023/02/18 00:58:23;;;;;;;25.02;15.27;;;19.80;99.90;;;;;;5034600;28;20034;-55
2023/02/18 01:00:49;;;;;;;27.27;16.33;;;19.80;99.90;;;;;;5017379;28;20124;-54
2023/02/18 01:03:15;;;;;;;24.10;15.20;;;19.80;99.90;;;;;;5027614;28;20490;-55
2023/02/18 01:05:41;;;;;;;21.85;14.50;;;19.80;99.90;;;;;;5028868;28;20056;-54
2023/02/18 01:08:09;;;;;;;24.42;16.23;;;19.80;99.90;;;;;;5029228;28;20029;-54
2023/02/18 01:10:39;;;;;;;24.73;14.40;;;19.80;99.90;;;;;;5027301;28;20383;-54
2023/02/18 01:13:05;;;;;;;22.75;14.10;;;19.80;99.90;;;;;;5027763;28;20022;-54
2023/02/18 01:15:31;;;;;;;21.27;14.63;;;19.80;99.90;;;;;;5008449;28;20022;-55
2023/02/18 01:17:57;;;;;;;23.00;14.27;;;19.80;99.90;;;;;;5021361;28;20116;-53
2023/02/18 01:20:22;;;;;;;21.98;15.40;;;19.80;99.90;;;;;;5034241;28;20025;-55
2023/02/18 01:22:48;;;;;;;25.98;14.40;;;19.80;99.90;;;;;;5030956;28;20014;-54
2023/02/18 01:25:14;;;;;;;21.92;14.77;;;19.80;99.90;;;;;;5024424;28;20045;-55
2023/02/18 01:27:41;;;;;;;19.25;14.18;;;19.80;99.90;;;;;;5016711;28;20379;-55
2023/02/18 01:30:08;;;;;;;24.80;15.07;;;19.80;99.90;;;;;;5034171;28;20029;-55
2023/02/18 01:32:34;;;;;;;24.02;14.32;;;19.80;99.90;;;;;;5034511;28;20171;-56
2023/02/18 01:35:01;;;;;;;20.65;13.95;;;19.80;99.90;;;;;;5027754;28;20054;-55
2023/02/18 01:37:27;;;;;;;22.02;14.93;;;19.80;99.90;;;;;;5016639;28;20379;-55
2023/02/18 01:39:53;;;;;;;21.92;13.73;;;19.80;99.90;;;;;;5016464;28;20029;-55
2023/02/18 01:42:22;;;;;;;20.20;13.57;;;19.80;99.90;;;;;;5019942;28;20426;-54
2023/02/18 01:44:48;;;;;;;19.33;14.25;;;19.80;99.90;;;;;;5021846;28;20096;-55
2023/02/18 01:47:15;;;;;;;24.20;13.18;;;19.80;99.90;;;;;;5034213;28;20471;-55
2023/02/18 01:49:45;;;;;;;20.90;13.43;;;19.80;99.90;;;;;;5014761;28;20026;-54
2023/02/18 01:52:22;;;;;;;23.73;14.57;;;19.80;99.90;;;;;;5014310;28;20018;-55
2023/02/18 01:54:52;;;;;;;19.30;13.48;;;19.80;99.90;;;;;;5020783;28;20097;-55
2023/02/18 01:57:26;;;;;;;22.02;13.65;;;19.80;99.90;;;;;;5033001;28;20021;-55
2023/02/18 01:59:55;;;;;;;20.45;13.63;;;19.80;99.90;;;;;;5034041;28;20476;-54
2023/02/18 02:02:25;;;;;;;21.05;13.95;;;19.80;99.90;;;;;;5003300;28;20018;-55
2023/02/18 02:04:51;;;;;;;18.23;12.02;;;19.80;99.90;;;;;;5031871;28;20068;-55
2023/02/18 02:07:19;;;;;;;20.40;13.75;;;19.70;99.90;;;;;;5015830;28;20117;-55
2023/02/18 02:09:48;;;;;;;20.38;13.48;;;19.80;99.90;;;;;;5033656;28;20410;-55
2023/02/18 02:12:47;;;;;;;18.38;12.60;;;19.80;99.90;;;;;;5033844;28;20108;-55
2023/02/18 02:15:28;;;;;;;20.23;13.05;;;19.70;99.90;;;;;;5003705;28;20022;-54
2023/02/18 02:18:09;;;;;;;19.88;12.88;;;19.70;99.90;;;;;;5033174;28;20025;-55
2023/02/18 02:21:03;;;;;;;20.88;13.25;;;19.80;99.90;;;;;;5032681;28;20037;-55
2023/02/18 02:24:05;;;;;;;18.55;12.95;;;19.80;99.90;;;;;;5021936;28;20495;-55
2023/02/18 02:26:52;;;;;;;20.10;12.50;;;19.80;99.90;;;;;;5033272;28;20377;-54
2023/02/18 02:29:43;;;;;;;21.05;13.10;;;19.70;99.90;;;;;;5033155;28;20084;-53
2023/02/18 02:32:12;;;;;;;18.52;13.35;;;19.80;99.90;;;;;;5033066;28;20040;-55
2023/02/18 02:34:59;;;;;;;20.98;12.38;;;19.80;99.90;;;;;;5019992;28;20036;-56
2023/02/18 02:37:49;;;;;;;17.35;11.88;;;19.80;99.90;;;;;;5016585;28;20542;-54
2023/02/18 02:40:15;;;;;;;22.27;13.25;;;19.80;99.90;;;;;;5022794;28;20029;-56
2023/02/18 02:42:50;;;;;;;19.40;11.80;;;19.80;99.90;;;;;;5014959;28;20075;-55
2023/02/18 02:45:35;;;;;;;21.23;13.05;;;19.80;99.90;;;;;;5032973;28;20029;-54
2023/02/18 02:48:20;;;;;;;19.23;12.23;;;19.80;99.90;;;;;;5032764;28;20022;-55
2023/02/18 02:51:13;;;;;;;19.67;12.10;;;19.80;99.90;;;;;;5018443;28;20025;-55
2023/02/18 02:53:41;;;;;;;18.15;12.10;;;19.70;99.90;;;;;;5022634;28;20022;-56
2023/02/18 02:56:21;;;;;;;;;;;19.80;99.90;;;;;;5033220;28;20014;-55
2023/02/18 02:58:56;;;;;;;18.67;12.30;;;19.70;99.90;;;;;;5032661;28;19959;-55
2023/02/18 03:02:03;;;;;;;17.10;11.77;;;19.80;99.90;;;;;;5013952;28;20404;-55
2023/02/18 03:04:49;;;;;;;20.83;13.27;;;19.80;99.90;;;;;;5029933;28;20033;-56
2023/02/18 03:07:25;;;;;;;17.27;12.55;;;19.80;99.90;;;;;;5014425;28;20036;-55
2023/02/18 03:10:16;;;;;;;19.27;12.63;;;19.80;99.90;;;;;;5032101;28;20014;-54
2023/02/18 03:13:01;;;;;;;21.38;12.77;;;19.80;99.90;;;;;;5013801;28;20506;-55
2023/02/18 03:15:34;;;;;;;18.27;12.02;;;19.70;99.90;;;;;;5002845;28;20129;-54
2023/02/18 03:18:06;;;;;;;16.73;11.95;;;19.70;99.90;;;;;;5031650;28;20033;-54
2023/02/18 03:20:40;;;;;;;19.88;11.88;;;19.70;99.90;;;;;;5020083;28;20026;-53
2023/02/18 03:23:16;;;;;;;19.77;11.55;;;19.70;99.90;;;;;;5032029;28;20029;-56
2023/02/18 03:25:43;;;;;;;19.67;11.55;;;19.70;99.90;;;;;;5019419;28;20030;-55
2023/02/18 03:28:14;;;;;;;18.95;11.27;;;19.70;99.90;;;;;;5031925;28;20056;-55
2023/02/18 03:30:57;;;;;;;17.25;11.93;;;19.70;99.90;;;;;;5003401;28;20080;-54
2023/02/18 03:33:29;;;;;;;17.50;11.85;;;19.70;99.90;;;;;;5019399;28;20079;-55
2023/02/18 03:35:56;;;;;;;17.27;11.70;;;19.70;99.90;;;;;;5031946;28;20048;-55
2023/02/18 03:38:29;;;;;;;19.83;12.45;;;19.70;99.90;;;;;;5032069;28;20021;-54
2023/02/18 03:40:55;;;;;;;19.50;11.55;;;19.70;99.90;;;;;;5015274;28;20056;-55
2023/02/18 03:43:22;;;;;;;17.05;11.57;;;19.70;99.90;;;;;;5012148;28;20096;-53
2023/02/18 03:45:47;;;;;;;18.17;11.27;;;19.70;99.90;;;;;;5012397;28;20026;-52
2023/02/18 03:48:13;;;;;;;19.92;11.10;;;19.70;99.90;;;;;;5020764;28;20076;-52
2023/02/18 03:50:39;;;;;;;17.25;11.15;;;19.70;99.90;;;;;;5014064;28;20076;-52
2023/02/18 03:53:04;;;;;;;17.90;10.43;;;19.70;99.90;;;;;;5006300;28;20022;-52
2023/02/18 03:55:30;;;;;;;18.25;11.40;;;19.70;99.90;;;;;;5026609;28;20471;-53
2023/02/18 03:57:56;;;;;;;23.40;11.23;;;19.70;99.90;;;;;;5031553;28;20055;-53
2023/02/18 04:00:22;;;;;;;19.52;10.93;;;19.70;99.90;;;;;;5032196;28;20403;-53
2023/02/18 04:02:48;;;;;;;19.15;11.85;;;19.70;99.90;;;;;;5032158;28;20020;-52
2023/02/18 04:05:13;;;;;;;19.80;11.23;;;19.70;99.90;;;;;;5020057;28;20034;-53
2023/02/18 04:07:39;;;;;;;19.10;10.63;;;19.70;99.90;;;;;;5006098;28;20037;-54
2023/02/18 04:10:07;;;;;;;16.38;10.65;;;19.70;99.90;;;;;;5011773;28;20026;-54
2023/02/18 04:12:33;;;;;;;17.48;10.95;;;19.70;99.90;;;;;;5007070;28;20030;-54
2023/02/18 04:14:58;;;;;;;19.13;10.88;;;19.70;99.90;;;;;;5022225;28;20103;-54
2023/02/18 04:17:24;;;;;;;17.17;10.65;;;19.70;99.90;;;;;;5013937;28;20467;-55
2023/02/18 04:19:50;;;;;;;18.50;11.23;;;19.70;99.90;;;;;;5015921;28;20109;-54
2023/02/18 04:22:16;;;;;;;17.67;10.65;;;19.70;99.90;;;;;;5018349;28;20018;-53
2023/02/18 04:24:41;;;;;;;16.13;9.70;;;19.70;99.90;;;;;;5024223;28;20025;-55
2023/02/18 04:27:07;;;;;;;19.70;10.10;;;19.70;99.90;;;;;;5035212;28;20427;-57
2023/02/18 04:29:33;;;;;;;16.23;9.40;;;19.70;99.90;;;;;;5035428;28;20387;-54
2023/02/18 04:31:59;;;;;;;18.13;10.88;;;19.70;99.90;;;;;;5022193;28;20490;-53
2023/02/18 04:34:25;;;;;;;16.88;9.90;;;19.70;99.90;;;;;;5028295;28;20030;-54
2023/02/18 04:36:50;;;;;;;19.30;10.75;;;19.70;99.90;;;;;;5029396;28;20017;-54
2023/02/18 04:39:16;;;;;;;17.80;10.65;;;19.70;99.90;;;;;;5017503;28;20476;-54
2023/02/18 04:41:42;;;;;;;18.45;10.77;;;19.70;99.90;;;;;;5017151;28;20468;-51
2023/02/18 04:44:08;;;;;;;15.63;9.63;;;19.60;99.90;;;;;;5035049;28;20028;-52
2023/02/18 04:46:33;;;;;;;15.73;10.60;;;19.60;99.90;;;;;;5035081;28;20475;-56
2023/02/18 04:48:59;;;;;;;15.40;10.82;;;19.60;99.90;;;;;;5035053;28;20029;-55
2023/02/18 04:51:25;;;;;;;17.05;10.85;;;19.60;99.90;;;;;;5028177;28;20018;-55
2023/02/18 04:53:51;;;;;;;15.65;9.60;;;19.70;99.90;;;;;;5015681;28;20458;-54
2023/02/18 04:56:16;;;;;;;15.65;9.52;;;19.70;99.90;;;;;;5020025;28;20545;-55
2023/02/18 04:58:42;;;;;;;15.18;9.27;;;19.60;99.90;;;;;;5034699;28;20041;-54
2023/02/18 05:01:08;;;;;;;14.82;9.48;;;19.60;99.90;;;;;;5030532;28;20082;-52
2023/02/18 05:03:34;;;;;;;13.95;9.23;;;19.60;99.90;;;;;;5015175;28;20057;-53
2023/02/18 05:05:59;;;;;;;15.52;9.25;;;19.60;99.90;;;;;;4997075;28;20026;-55
2023/02/18 05:08:25;;;;;;;16.77;10.18;;;19.60;99.90;;;;;;5025220;28;20423;-54
2023/02/18 05:10:51;;;;;;;13.90;9.40;;;19.60;99.90;;;;;;5034661;28;20392;-54
2023/02/18 05:13:17;;;;;;;17.35;10.38;;;19.60;99.90;;;;;;5008838;28;20054;-54
2023/02/18 05:15:43;;;;;;;12.32;9.13;;;19.60;99.90;;;;;;5029406;28;20026;-54
2023/02/18 05:18:08;;;;;;;13.73;9.48;;;19.60;99.90;;;;;;5021231;28;20468;-54
2023/02/18 05:20:34;;;;;;;18.05;9.75;;;19.60;99.90;;;;;;5003654;28;20476;-55
2023/02/18 05:23:00;;;;;;;17.55;9.50;;;19.60;99.90;;;;;;5034426;28;20053;-54
2023/02/18 05:25:26;;;;;;;13.52;9.43;;;19.60;99.90;;;;;;5034565;28;20052;-55
2023/02/18 05:27:51;;;;;;;15.80;9.48;;;19.60;99.90;;;;;;5016581;28;20076;-55
2023/02/18 05:30:17;;;;;;;15.25;9.75;;;19.60;99.90;;;;;;5023648;28;20088;-54
2023/02/18 05:32:43;;;;;;;16.27;9.35;;;19.60;99.90;;;;;;5027354;28;20480;-55
2023/02/18 05:35:09;;;;;;;15.77;9.05;;;19.60;99.90;;;;;;5014370;28;20037;-54
2023/02/18 05:37:35;;;;;;;15.10;9.35;;;19.60;99.90;;;;;;5027619;28;20067;-55
2023/02/18 05:40:02;;;;;;;12.85;8.82;;;19.60;99.90;;;;;;5014193;28;20038;-54
2023/02/18 05:42:28;;;;;;;17.52;9.07;;;19.60;99.90;;;;;;5014268;28;20026;-54
2023/02/18 05:44:53;;;;;;;14.77;9.63;;;19.60;99.90;;;;;;5014518;28;20057;-55
2023/02/18 05:47:19;;;;;;;15.15;8.68;;;19.60;99.90;;;;;;5028089;28;20510;-55
2023/02/18 05:49:45;;;;;;;14.65;9.40;;;19.60;99.90;;;;;;5028144;28;20104;-55
2023/02/18 05:52:11;;;;;;;13.63;9.25;;;19.60;99.90;;;;;;5014084;28;20092;-54
2023/02/18 05:54:38;;;;;;;15.80;9.65;;;19.60;99.90;;;;;;5013986;28;20037;-55
2023/02/18 05:57:04;;;;;;;13.98;8.70;;;19.60;99.90;;;;;;5026249;28;20132;-54
2023/02/18 05:59:30;;;;;;;17.23;7.75;;;19.60;99.90;;;;;;5033487;28;20501;-54
2023/02/18 06:01:56;;;;;;;12.65;8.82;;;19.60;99.90;;;;;;5016090;28;20365;-54
2023/02/18 06:04:22;;;;;;;13.93;8.85;;;19.60;99.90;;;;;;5015993;28;20048;-55
2023/02/18 06:06:48;;;;;;;12.48;8.02;;;19.60;99.90;;;;;;5024773;28;20025;-55
2023/02/18 06:09:14;;;;;;;10.65;8.00;;;19.60;99.90;;;;;;5033445;28;20030;-54
2023/02/18 06:11:39;;;;;;;15.05;9.82;;;19.60;99.90;;;;;;5033359;28;20109;-54
2023/02/18 06:14:05;;;;;;;14.77;8.82;;;19.60;99.90;;;;;;5020342;28;20044;-54
2023/02/18 06:16:31;;;;;;;16.00;8.73;;;19.60;99.90;;;;;;5025623;28;20034;-54
2023/02/18 06:18:58;;;;;;;13.73;8.23;;;19.60;99.90;;;;;;5013280;28;20050;-54
2023/02/18 06:21:23;;;;;;;13.27;7.93;;;19.60;99.90;;;;;;5021739;28;20037;-54
2023/02/18 06:23:49;;;;;;;13.20;9.07;;;19.60;99.90;;;;;;5020273;28;20033;-54
2023/02/18 06:26:15;;;;;;;14.48;8.60;;;19.60;99.90;;;;;;5032878;28;20018;-54
2023/02/18 06:28:41;;;;;;;14.05;8.45;;;19.60;99.90;;;;;;5033103;28;20052;-54
2023/02/18 06:31:06;;;;;;;13.80;8.50;;;19.60;99.90;;;;;;5032836;28;20483;-54
2023/02/18 06:33:32;;;;;;;15.07;9.15;;;19.60;99.90;;;;;;5033165;28;20037;-54
2023/02/18 06:36:01;;;;;;;13.52;8.43;;;19.60;99.90;;;;;;5032811;28;20073;-55
2023/02/18 06:38:27;;;;;;;15.10;8.88;;;19.60;99.90;;;;;;5033137;28;20487;-55
2023/02/18 06:40:53;;;;;;;14.85;8.40;;;19.60;99.90;;;;;;5013929;28;20034;-55
2023/02/18 06:43:20;;;;;;;13.20;7.80;;;19.60;99.90;;;;;;5020725;28;20028;-55
2023/02/18 06:45:46;;;;;;;15.23;8.68;;;19.60;99.90;;;;;;5013527;28;20029;-55
2023/02/18 06:48:13;;;;;;;13.15;8.60;;;19.60;99.90;;;;;;5019393;28;20104;-55
2023/02/18 06:50:40;;;;;;;12.48;7.97;;;19.60;99.90;;;;;;5032728;28;20108;-55
2023/02/18 06:53:06;;;;;;;;;;;19.60;99.90;;;;;;5033082;28;20104;-55
2023/02/18 06:55:32;;;;;;;14.52;8.45;;;19.60;99.90;;;;;;5032707;28;19995;-55
2023/02/18 06:57:58;;;;;;;13.82;7.80;;;19.60;99.90;;;;;;5019217;28;20467;-54
2023/02/18 07:00:24;;;;;;;15.07;9.25;;;19.60;99.90;;;;;;5032720;28;20570;-54
2023/02/18 07:02:50;;;;;;;14.32;7.72;;;19.60;99.90;;;;;;5015823;28;20018;-54
2023/02/18 07:05:16;;;;;;;17.75;8.85;;;19.60;99.90;;;;;;5022946;28;20113;-55
2023/02/18 07:07:42;;;;;;;13.75;9.15;;;19.60;99.90;;;;;;5032269;28;20081;-53
2023/02/18 07:10:08;;;;;;;14.32;9.15;;;19.60;99.90;;;;;;5032338;28;20047;-53
2023/02/18 07:12:34;;;;;;;12.98;8.43;;;19.60;99.90;;;;;;5032096;28;20464;-54
2023/02/18 07:15:00;;;;;;;13.85;8.85;;;19.60;99.90;;;;;;5032346;28;20033;-55
2023/02/18 07:17:26;;;;;;;15.93;9.35;;;19.60;99.90;;;;;;5031718;28;20044;-53
2023/02/18 07:19:52;;;;;;;15.35;8.57;;;19.60;99.90;;;;;;5019703;28;20034;-54
2023/02/18 07:22:18;;;;;;;12.82;8.50;;;19.60;99.90;;;;;;5032000;28;20078;-53
2023/02/18 07:24:43;;;;;;;13.68;8.60;;;19.60;99.90;;;;;;5031985;28;20021;-51
2023/02/18 07:27:09;;;;;;;13.70;8.70;;;19.60;99.90;;;;;;5021992;28;20085;-55
2023/02/18 07:29:35;;;;;;;13.40;8.95;;;19.60;99.90;;;;;;5015898;28;20017;-52
2023/02/18 07:32:01;;;;;;;14.35;8.70;;;19.60;99.90;;;;;;5004785;28;20378;-54
2023/02/18 07:34:27;;;;;;;14.10;9.00;;;19.60;99.90;;;;;;5025339;28;20028;-54
2023/02/18 07:36:53;;;;;;;14.52;8.60;;;19.60;99.90;;;;;;5012255;28;20109;-54
2023/02/18 07:39:19;;;;;;;14.52;9.30;;;19.60;99.90;;;;;;5012126;28;20042;-55
2023/02/18 07:41:46;;;;;;;19.50;9.50;;;19.60;99.90;;;;;;5003675;28;20021;-55
2023/02/18 07:44:13;;;;;;;14.82;8.98;;;19.60;99.90;;;;;;5014140;28;20438;-54
2023/02/18 07:46:40;;;;;;;14.77;9.07;;;19.60;99.90;;;;;;5031990;28;20108;-53
2023/02/18 07:49:07;;;;;;;14.50;8.25;;;19.60;99.90;;;;;;5018485;28;20419;-54
2023/02/18 07:51:33;;;;;;;12.27;8.30;;;19.60;99.90;;;;;;5031825;28;20032;-54
2023/02/18 07:53:58;;;;;;;13.50;8.68;;;19.60;99.90;;;;;;4984295;28;20022;-54
2023/02/18 07:56:24;;;;;;;14.25;9.05;;;19.60;99.90;;;;;;5031841;28;20079;-55
2023/02/18 07:58:50;;;;;;;14.13;9.05;;;19.60;99.90;;;;;;5031519;28;20099;-56
2023/02/18 08:01:16;;;;;;;13.27;8.60;;;19.60;99.90;;;;;;5012599;28;20108;-55
2023/02/18 08:03:42;;;;;;;13.65;8.63;;;19.60;99.90;;;;;;5024126;28;20026;-55
2023/02/18 08:06:20;;;;;;;14.30;8.70;;;19.60;99.90;;;;;;5012413;28;20073;-55
2023/02/18 08:08:46;;;;;;;14.05;9.52;;;19.60;99.90;;;;;;5012243;28;20018;-56
2023/02/18 08:11:12;;;;;;;13.32;8.70;;;19.60;99.90;;;;;;5011713;28;20018;-57
2023/02/18 08:13:37;;;;;;;16.20;8.98;;;19.60;99.90;;;;;;5011740;28;20113;-55
2023/02/18 08:16:03;;;;;;;14.77;8.57;;;19.70;99.90;;;;;;5016262;28;20025;-54
2023/02/18 08:18:29;;;;;;;12.98;9.05;;;19.60;99.90;;;;;;5031684;28;20440;-55
2023/02/18 08:20:55;;;;;;;14.35;8.55;;;19.60;99.90;;;;;;5028482;28;20034;-54
2023/02/18 08:23:21;;;;;;;16.00;9.00;;;19.60;99.90;;;;;;5021093;28;20026;-53
2023/02/18 08:25:52;;;;;;;14.32;9.07;;;19.70;99.90;;;;;;5030269;28;20105;-55
2023/02/18 08:28:20;;;;;;;12.43;7.95;;;19.60;99.90;;;;;;5020044;28;20495;-56
2023/02/18 08:30:47;;;;;;;12.23;7.53;;;19.60;99.90;;;;;;5031227;28;20029;-56
2023/02/18 08:33:13;;;;;;;13.65;8.32;;;19.70;99.90;;;;;;5023512;28;20107;-56
2023/02/18 08:35:39;;;;;;;14.23;8.70;;;19.70;99.90;;;;;;5013251;28;20092;-56
2023/02/18 08:38:05;;;;;;;14.48;9.10;;;19.70;99.90;;;;;;5031257;28;20029;-55
2023/02/18 08:40:31;;;;;;;14.20;9.20;;;19.70;99.90;;;;;;5031587;28;20057;-56
2023/02/18 08:42:57;;;;;;;14.27;8.60;;;19.70;99.90;;;;;;5013619;28;20480;-55
2023/02/18 08:45:23;;;;;;;14.80;9.43;;;19.70;99.90;;;;;;5031319;28;20033;-55
2023/02/18 08:47:48;;;;;;;12.68;8.27;;;19.70;99.90;;;;;;5031051;28;20068;-55
2023/02/18 08:50:14;;;;;;;12.15;8.27;;;19.80;99.90;;;;;;5031106;28;20084;-54
2023/02/18 08:52:40;;;;;;;13.82;8.65;;;19.80;99.90;;;;;;5015389;28;20022;-55
2023/02/18 08:55:06;;;;;;;12.98;8.90;;;19.80;99.90;;;;;;5011346;28;20416;-55
2023/02/18 08:57:32;;;;;;;15.63;9.07;;;19.80;99.90;;;;;;5011555;28;20099;-55
2023/02/18 08:59:58;;;;;;;11.30;8.30;;;19.90;99.90;;;;;;5003188;28;20365;-55
2023/02/18 09:02:23;;;;;;;15.02;9.45;;;19.80;99.90;;;;;;5031023;28;20026;-55
2023/02/18 09:04:49;;;;;;;13.90;8.65;;;19.80;99.90;;;;;;5030901;28;20052;-55
2023/02/18 09:07:15;;;;;;;13.32;7.97;;;19.90;99.90;;;;;;5033235;28;20022;-54
2023/02/18 09:09:41;;;;;;;16.10;7.78;;;19.90;99.90;;;;;;5034712;28;20057;-55
2023/02/18 09:12:07;;;;;;;14.57;7.72;;;19.90;99.90;;;;;;5034495;28;20030;-55
2023/02/18 09:14:33;;;;;;;12.00;8.13;;;19.90;99.90;;;;;;5034616;28;20018;-54
2023/02/18 09:16:59;;;;;;;11.73;8.05;;;19.90;99.90;;;;;;5022379;28;20026;-55
2023/02/18 09:19:25;;;;;;;13.13;8.02;;;19.90;99.90;;;;;;5033436;28;20037;-55
2023/02/18 09:21:52;;;;;;;17.50;8.52;;;19.90;99.90;;;;;;5034556;28;20036;-55
2023/02/18 09:24:19;;;;;;;13.27;8.30;;;20.00;99.90;;;;;;5021101;28;20372;-55
2023/02/18 09:26:44;;;;;;;11.88;7.72;;;19.90;99.90;;;;;;5024458;28;20025;-55
2023/02/18 09:29:10;;;;;;;15.55;7.88;;;20.00;99.90;;;;;;5030986;28;20029;-54
2023/02/18 09:31:38;;;;;;;14.13;7.50;;;20.00;99.90;;;;;;5034271;28;20048;-55
2023/02/18 09:34:04;;;;;;;13.45;7.53;;;20.00;99.90;;;;;;5034328;28;20025;-55
2023/02/18 09:36:31;;;;;;;12.20;7.63;;;20.00;99.90;;;;;;5034299;28;20075;-55
2023/02/18 09:38:58;;;;;;;10.93;7.43;;;20.00;99.90;;;;;;5034143;28;20045;-55
2023/02/18 09:41:42;;;;;;;13.68;7.75;;;20.10;99.90;;;;;;5034013;28;20360;-54
2023/02/18 09:44:13;;;;;;;11.43;6.93;;;20.10;99.90;;;;;;5016350;28;20061;-55
2023/02/18 09:46:47;;;;;;;14.23;7.22;;;20.10;99.90;;;;;;5020987;28;20025;-55
2023/02/18 09:49:20;;;;;;;12.50;7.63;;;20.10;99.90;;;;;;5020375;28;20112;-55
2023/02/18 09:51:46;;;;;;;11.57;6.65;;;20.20;99.90;;;;;;5033914;28;20027;-55
2023/02/18 09:54:16;;;;;;;8.45;6.47;;;20.20;99.90;;;;;;5033661;28;20032;-55
2023/02/18 09:56:44;;;;;;;14.63;7.18;;;20.20;99.90;;;;;;5033863;28;20025;-55
2023/02/18 09:59:23;;;;;;;12.52;6.97;;;20.20;99.90;;;;;;5020603;28;20113;-55
2023/02/18 10:01:53;;;;;;;10.43;6.45;;;20.20;99.90;;;;;;5022534;28;20045;-54
2023/02/18 10:04:24;;;;;;;12.70;7.20;;;20.30;99.90;;;;;;5033552;28;20096;-55
2023/02/18 10:06:53;;;;;;;9.85;6.72;;;20.30;99.90;;;;;;5033602;28;20025;-55
2023/02/18 10:09:27;;;;;;;16.05;6.40;;;20.30;99.90;;;;;;5033624;28;20016;-54
2023/02/18 10:12:00;;;;;;;14.85;6.95;;;20.40;99.90;;;;;;5023252;28;20022;-55
2023/02/18 10:14:26;;;;;;;14.93;7.10;;;20.40;99.90;;;;;;5031536;28;20391;-56
2023/02/18 10:16:53;;;;;;;13.45;7.50;;;20.40;99.90;;;;;;5032954;28;20021;-55
2023/02/18 10:19:37;;;;;;;10.90;6.47;;;20.50;99.90;;;;;;5015209;28;20443;-55
2023/02/18 10:22:06;;;;;;;11.77;6.97;;;20.40;99.90;;;;;;5026574;28;20045;-55
2023/02/18 10:24:36;;;;;;;16.48;6.18;;;20.50;99.90;;;;;;5013114;28;20025;-56
2023/02/18 10:27:06;;;;;;;13.43;6.97;;;20.50;99.90;;;;;;5013113;28;20029;-55
2023/02/18 10:29:32;;;;;;;11.02;6.60;;;20.50;99.90;;;;;;5012713;28;20379;-55
2023/02/18 10:32:03;;;;;;;12.13;7.10;;;20.50;99.90;;;;;;5032046;28;20048;-56
2023/02/18 10:34:41;;;;;;;14.27;6.75;;;20.50;99.90;;;;;;5028432;28;20105;-55
2023/02/18 10:37:42;;;;;;;12.48;7.13;;;20.50;99.90;;;;;;5013520;28;20030;-55
2023/02/18 10:40:20;;;;;;;10.90;6.43;;;20.50;99.90;;;;;;4991408;28;20038;-55
2023/02/18 10:43:07;;;;;;;11.52;6.90;;;20.60;99.90;;;;;;5030169;28;20036;-55
2023/02/18 10:45:53;;;;;;;13.20;7.15;;;20.60;99.90;;;;;;5032293;28;20072;-55
2023/02/18 10:48:46;;;;;;;14.75;6.57;;;20.60;99.90;;;;;;5032547;28;20017;-55
2023/02/18 10:51:21;;;;;;;14.85;7.13;;;20.70;99.90;;;;;;5032527;28;20395;-56
2023/02/18 10:53:50;;;;;;;14.65;6.90;;;20.70;99.90;;;;;;5015224;28;20601;-56
2023/02/18 10:56:39;;;;;;;12.23;6.80;;;20.70;99.90;;;;;;5014045;28;20060;-55
2023/02/18 10:59:20;;;;;;;12.18;6.60;;;20.80;99.90;;;;;;5011877;28;20476;-55
2023/02/18 11:01:56;;;;;;;12.20;6.28;;;20.80;99.90;;;;;;5016604;28;20034;-55
2023/02/18 11:04:26;;;;;;;13.63;6.10;;;20.80;99.90;;;;;;5011192;28;20025;-55
2023/02/18 11:06:53;;;;;;;14.25;6.32;;;20.90;99.90;;;;;;5012004;28;20033;-54
2023/02/18 11:09:31;;;;;;;12.35;6.22;;;20.90;99.90;;;;;;5024228;28;20068;-54
2023/02/18 11:12:12;;;;;;;13.35;6.50;;;20.90;99.90;;;;;;5028607;28;20037;-55
2023/02/18 11:14:42;;;;;;;12.70;6.28;;;21.00;99.90;;;;;;5011000;28;20426;-54
2023/02/18 11:17:19;;;;;;;12.30;6.93;;;21.00;99.90;;;;;;5014809;28;20029;-53
2023/02/18 11:19:54;;;;;;;12.73;6.38;;;21.10;99.90;;;;;;5011560;28;20029;-54
2023/02/18 11:22:27;;;;;;;11.98;6.03;;;21.10;99.90;;;;;;5022348;28;20029;-54
2023/02/18 11:24:55;;;;;;;13.60;6.45;;;21.20;99.90;;;;;;5014853;28;20044;-53
2023/02/18 11:27:21;;;;;;;18.80;5.78;;;21.20;99.90;;;;;;5005177;28;20034;-54
2023/02/18 11:29:51;;;;;;;10.23;6.28;;;21.20;99.90;;;;;;5024608;28;20025;-54
2023/02/18 11:32:17;;;;;;;11.68;6.18;;;21.30;99.90;;;;;;5022205;28;20022;-55
2023/02/18 11:34:44;;;;;;;15.38;6.32;;;21.30;99.90;;;;;;5022892;28;20127;-54
2023/02/18 11:37:17;;;;;;;21.57;6.43;;;21.30;99.90;;;;;;5003154;28;20049;-55
2023/02/18 11:39:45;;;;;;;11.32;6.15;;;21.30;99.90;;;;;;5019919;28;20037;-53
2023/02/18 11:42:14;;;;;;;15.32;6.85;;;21.30;99.90;;;;;;5025280;28;20022;-55
2023/02/18 11:44:48;;;;;;;12.32;6.20;;;21.40;99.90;;;;;;5024679;28;20050;-53
2023/02/18 11:47:13;;;;;;;13.20;6.53;;;21.40;99.90;;;;;;5019061;28;20128;-54
2023/02/18 11:49:41;;;;;;;16.02;7.45;;;21.40;99.90;;;;;;5019244;28;20092;-54
2023/02/18 11:52:24;;;;;;;13.13;6.28;;;21.40;99.90;;;;;;5023449;28;20025;-54
2023/02/18 11:55:02;;;;;;;15.68;6.25;;;21.40;99.90;;;;;;5018176;28;20017;-54
2023/02/18 11:57:28;;;;;;;;;;;21.50;99.90;;;;;;4999146;28;20022;-54
2023/02/18 11:59:54;;;;;;;12.68;6.45;;;21.50;99.90;;;;;;5019981;28;20287;-54
2023/02/18 12:02:30;;;;;;;11.32;6.50;;;21.60;99.90;;;;;;5019578;28;20022;-55
2023/02/18 12:05:16;;;;;;;11.27;6.50;;;21.60;99.90;;;;;;5017111;28;20104;-55
2023/02/18 12:07:47;;;;;;;13.48;6.43;;;21.60;99.90;;;;;;5023582;28;20018;-54
2023/02/18 12:10:13;;;;;;;10.13;5.80;;;21.70;99.90;;;;;;5022536;28;20128;-55
2023/02/18 12:12:52;;;;;;;13.00;7.07;;;21.70;99.90;;;;;;5015053;28;20484;-56
2023/02/18 12:15:28;;;;;;;15.00;5.97;;;21.70;99.90;;;;;;5017473;28;20563;-56
2023/02/18 12:18:21;;;;;;;11.30;5.65;;;21.80;99.90;;;;;;5018191;28;20030;-56
2023/02/18 12:21:08;;;;;;;12.10;5.53;;;21.80;99.90;;;;;;5023157;28;20079;-57
2023/02/18 12:24:03;;;;;;;11.50;6.85;;;21.80;99.90;;;;;;5018830;28;20041;-55
2023/02/18 12:26:39;;;;;;;13.98;5.85;;;21.90;99.90;;;;;;5007255;28;20045;-56
2023/02/18 12:29:23;;;;;;;16.27;6.82;;;21.90;99.90;;;;;;5011956;28;20116;-56
2023/02/18 12:31:57;;;;;;;11.90;6.13;;;22.00;99.90;;;;;;5023632;28;20876;-55
2023/02/18 12:34:56;;;;;;;9.27;5.88;;;22.00;99.90;;;;;;5011027;28;20033;-54
2023/02/18 12:37:53;;;;;;;12.23;5.80;;;22.00;99.90;;;;;;5019241;28;20030;-54
2023/02/18 12:40:56;;;;;;;10.45;6.28;;;22.00;99.90;;;;;;4996157;28;20053;-54
2023/02/18 12:43:40;;;;;;;12.68;6.90;;;22.10;99.90;;;;;;5014795;28;20030;-55
2023/02/18 12:46:30;;;;;;;9.70;6.38;;;22.10;99.90;;;;;;5018262;28;20040;-55
2023/02/18 12:48:59;;;;;;;12.35;6.13;;;22.10;99.90;;;;;;5017435;28;20029;-55